sensor_id;sensor_type;location;lat;lon;timestamp;P1;durP1;ratioP1;P2;durP2;ratioP2
2390;SDS011;22957;50.824;4.360;2022-12-18T00:02:07;35.13;;;19.83;;
2390;SDS011;22957;50.824;4.360;2022-12-18T00:04:36;30.60;;;15.93;;
2390;SDS011;22957;50.824;4.360;2022-12-18T00:07:01;29.87;;;17.20;;
2390;SDS011;22957;50.824;4.360;2022-12-18T00:09:28;34.33;;;19.90;;
2390;SDS011;22957;50.824;4.360;2022-12-18T00:11:53;27.87;;;16.13;;
2390;SDS011;22957;50.824;4.360;2022-12-18T00:14:19;29.90;;;17.80;;
2390;SDS011;22957;50.824;4.360;2022-12-18T00:16:45;30.03;;;15.73;;
2390;SDS011;22957;50.824;4.360;2022-12-18T00:19:12;32.60;;;17.53;;
2390;SDS011;22957;50.824;4.360;2022-12-18T00:21:44;31.67;;;17.33;;
2390;SDS011;22957;50.824;4.360;2022-12-18T00:24:13;32.30;;;16.50;;
2390;SDS011;22957;50.824;4.360;2022-12-18T00:26:39;33.37;;;17.87;;
2390;SDS011;22957;50.824;4.360;2022-12-18T00:29:06;26.03;;;15.10;;
2390;SDS011;22957;50.824;4.360;2022-12-18T00:31:35;26.10;;;14.67;;
2390;SDS011;22957;50.824;4.360;2022-12-18T00:34:02;26.67;;;14.17;;
2390;SDS011;22957;50.824;4.360;2022-12-18T00:36:29;31.43;;;15.60;;
2390;SDS011;22957;50.824;4.360;2022-12-18T00:38:58;32.70;;;16.43;;
2390;SDS011;22957;50.824;4.360;2022-12-18T00:41:25;30.37;;;16.90;;
2390;SDS011;22957;50.824;4.360;2022-12-18T00:44:12;26.23;;;15.43;;
2390;SDS011;22957;50.824;4.360;2022-12-18T00:46:39;31.90;;;16.37;;
2390;SDS011;22957;50.824;4.360;2022-12-18T00:49:06;31.97;;;16.70;;
2390;SDS011;22957;50.824;4.360;2022-12-18T00:51:31;29.47;;;14.70;;
2390;SDS011;22957;50.824;4.360;2022-12-18T00:53:57;32.67;;;16.67;;
2390;SDS011;22957;50.824;4.360;2022-12-18T00:56:23;31.10;;;15.97;;
2390;SDS011;22957;50.824;4.360;2022-12-18T00:58:49;29.30;;;14.83;;
2390;SDS011;22957;50.824;4.360;2022-12-18T01:01:15;27.03;;;13.00;;
2390;SDS011;22957;50.824;4.360;2022-12-18T01:03:42;26.20;;;14.20;;
2390;SDS011;22957;50.824;4.360;2022-12-18T01:06:22;21.20;;;12.27;;
2390;SDS011;22957;50.824;4.360;2022-12-18T01:08:48;26.47;;;13.90;;
2390;SDS011;22957;50.824;4.360;2022-12-18T01:11:15;20.10;;;11.77;;
2390;SDS011;22957;50.824;4.360;2022-12-18T01:13:43;25.77;;;12.83;;
2390;SDS011;22957;50.824;4.360;2022-12-18T01:16:13;20.30;;;11.23;;
2390;SDS011;22957;50.824;4.360;2022-12-18T01:18:40;17.67;;;10.37;;
2390;SDS011;22957;50.824;4.360;2022-12-18T01:21:07;20.23;;;11.00;;
2390;SDS011;22957;50.824;4.360;2022-12-18T01:23:34;19.57;;;10.20;;
2390;SDS011;22957;50.824;4.360;2022-12-18T01:26:07;16.43;;;9.90;;
2390;SDS011;22957;50.824;4.360;2022-12-18T01:28:35;21.63;;;11.17;;
2390;SDS011;22957;50.824;4.360;2022-12-18T01:33:37;17.80;;;9.60;;
2390;SDS011;22957;50.824;4.360;2022-12-18T01:36:02;18.93;;;10.23;;
2390;SDS011;22957;50.824;4.360;2022-12-18T01:38:28;19.03;;;10.20;;
2390;SDS011;22957;50.824;4.360;2022-12-18T01:40:57;21.03;;;11.13;;
2390;SDS011;22957;50.824;4.360;2022-12-18T01:46:10;16.30;;;8.83;;
2390;SDS011;22957;50.824;4.360;2022-12-18T01:48:37;17.20;;;9.00;;
2390;SDS011;22957;50.824;4.360;2022-12-18T01:51:04;22.30;;;10.47;;
2390;SDS011;22957;50.824;4.360;2022-12-18T01:53:32;17.30;;;9.17;;
2390;SDS011;22957;50.824;4.360;2022-12-18T01:55:58;19.60;;;10.20;;
2390;SDS011;22957;50.824;4.360;2022-12-18T01:59:07;20.13;;;10.70;;
2390;SDS011;22957;50.824;4.360;2022-12-18T02:01:28;20.07;;;9.93;;
2390;SDS011;22957;50.824;4.360;2022-12-18T02:03:55;17.17;;;10.60;;
2390;SDS011;22957;50.824;4.360;2022-12-18T02:06:23;15.53;;;9.07;;
2390;SDS011;22957;50.824;4.360;2022-12-18T02:09:11;19.73;;;10.47;;
2390;SDS011;22957;50.824;4.360;2022-12-18T02:11:48;17.60;;;9.37;;
2390;SDS011;22957;50.824;4.360;2022-12-18T02:14:39;15.77;;;9.20;;
2390;SDS011;22957;50.824;4.360;2022-12-18T02:19:45;20.13;;;9.80;;
2390;SDS011;22957;50.824;4.360;2022-12-18T02:27:44;19.53;;;9.73;;
2390;SDS011;22957;50.824;4.360;2022-12-18T02:30:12;19.37;;;10.27;;
2390;SDS011;22957;50.824;4.360;2022-12-18T02:32:40;16.33;;;9.90;;
2390;SDS011;22957;50.824;4.360;2022-12-18T02:35:10;16.97;;;9.50;;
2390;SDS011;22957;50.824;4.360;2022-12-18T02:37:44;19.60;;;9.40;;
2390;SDS011;22957;50.824;4.360;2022-12-18T02:40:12;16.60;;;9.20;;
2390;SDS011;22957;50.824;4.360;2022-12-18T02:42:39;21.20;;;10.27;;
2390;SDS011;22957;50.824;4.360;2022-12-18T02:45:05;17.50;;;9.73;;
2390;SDS011;22957;50.824;4.360;2022-12-18T02:47:32;19.80;;;10.20;;
2390;SDS011;22957;50.824;4.360;2022-12-18T02:50:08;18.60;;;10.17;;
2390;SDS011;22957;50.824;4.360;2022-12-18T02:52:54;16.47;;;9.87;;
2390;SDS011;22957;50.824;4.360;2022-12-18T02:58:16;16.97;;;8.97;;
2390;SDS011;22957;50.824;4.360;2022-12-18T03:00:58;17.77;;;9.90;;
2390;SDS011;22957;50.824;4.360;2022-12-18T03:03:36;15.57;;;8.97;;
2390;SDS011;22957;50.824;4.360;2022-12-18T03:06:29;19.07;;;11.73;;
2390;SDS011;22957;50.824;4.360;2022-12-18T03:09:11;17.80;;;9.50;;
2390;SDS011;22957;50.824;4.360;2022-12-18T03:11:41;18.67;;;9.50;;
2390;SDS011;22957;50.824;4.360;2022-12-18T03:14:30;21.50;;;11.30;;
2390;SDS011;22957;50.824;4.360;2022-12-18T03:16:59;17.93;;;10.70;;
2390;SDS011;22957;50.824;4.360;2022-12-18T03:19:28;20.63;;;10.50;;
2390;SDS011;22957;50.824;4.360;2022-12-18T03:21:57;23.90;;;11.87;;
2390;SDS011;22957;50.824;4.360;2022-12-18T03:24:26;20.00;;;12.10;;
2390;SDS011;22957;50.824;4.360;2022-12-18T03:26:56;23.90;;;12.17;;
2390;SDS011;22957;50.824;4.360;2022-12-18T03:29:27;18.80;;;10.83;;
2390;SDS011;22957;50.824;4.360;2022-12-18T03:32:05;22.40;;;11.87;;
2390;SDS011;22957;50.824;4.360;2022-12-18T03:34:37;16.73;;;10.57;;
2390;SDS011;22957;50.824;4.360;2022-12-18T03:37:05;22.73;;;11.07;;
2390;SDS011;22957;50.824;4.360;2022-12-18T03:39:32;24.63;;;11.30;;
2390;SDS011;22957;50.824;4.360;2022-12-18T03:50:13;25.07;;;11.63;;
2390;SDS011;22957;50.824;4.360;2022-12-18T03:52:49;17.00;;;9.60;;
2390;SDS011;22957;50.824;4.360;2022-12-18T03:55:24;15.73;;;9.40;;
2390;SDS011;22957;50.824;4.360;2022-12-18T03:57:54;17.90;;;9.20;;
2390;SDS011;22957;50.824;4.360;2022-12-18T04:00:20;19.47;;;10.73;;
2390;SDS011;22957;50.824;4.360;2022-12-18T04:02:50;20.83;;;9.70;;
2390;SDS011;22957;50.824;4.360;2022-12-18T04:05:19;17.37;;;9.83;;
2390;SDS011;22957;50.824;4.360;2022-12-18T04:07:45;17.10;;;9.17;;
2390;SDS011;22957;50.824;4.360;2022-12-18T04:10:14;19.33;;;8.50;;
2390;SDS011;22957;50.824;4.360;2022-12-18T04:12:41;17.50;;;9.40;;
2390;SDS011;22957;50.824;4.360;2022-12-18T04:15:08;18.53;;;8.90;;
2390;SDS011;22957;50.824;4.360;2022-12-18T04:17:35;16.93;;;9.27;;
2390;SDS011;22957;50.824;4.360;2022-12-18T04:20:01;18.43;;;10.53;;
2390;SDS011;22957;50.824;4.360;2022-12-18T04:22:26;13.10;;;8.33;;
2390;SDS011;22957;50.824;4.360;2022-12-18T04:24:52;16.87;;;8.90;;
2390;SDS011;22957;50.824;4.360;2022-12-18T04:27:18;20.13;;;9.20;;
2390;SDS011;22957;50.824;4.360;2022-12-18T04:29:44;14.70;;;8.23;;
2390;SDS011;22957;50.824;4.360;2022-12-18T04:32:13;16.60;;;9.50;;
2390;SDS011;22957;50.824;4.360;2022-12-18T04:34:38;14.10;;;8.03;;
2390;SDS011;22957;50.824;4.360;2022-12-18T04:37:04;15.10;;;7.80;;
2390;SDS011;22957;50.824;4.360;2022-12-18T04:39:30;14.80;;;8.20;;
2390;SDS011;22957;50.824;4.360;2022-12-18T04:41:59;16.23;;;9.00;;
2390;SDS011;22957;50.824;4.360;2022-12-18T04:44:25;15.63;;;8.07;;
2390;SDS011;22957;50.824;4.360;2022-12-18T04:46:52;16.23;;;8.13;;
2390;SDS011;22957;50.824;4.360;2022-12-18T04:49:18;16.90;;;8.43;;
2390;SDS011;22957;50.824;4.360;2022-12-18T04:51:44;15.90;;;8.23;;
2390;SDS011;22957;50.824;4.360;2022-12-18T04:54:09;17.53;;;9.00;;
2390;SDS011;22957;50.824;4.360;2022-12-18T04:56:35;18.70;;;8.43;;
2390;SDS011;22957;50.824;4.360;2022-12-18T04:59:01;13.63;;;8.43;;
2390;SDS011;22957;50.824;4.360;2022-12-18T05:01:27;16.80;;;9.30;;
2390;SDS011;22957;50.824;4.360;2022-12-18T05:03:53;15.20;;;9.00;;
2390;SDS011;22957;50.824;4.360;2022-12-18T05:06:19;17.73;;;8.53;;
2390;SDS011;22957;50.824;4.360;2022-12-18T05:08:44;19.20;;;9.97;;
2390;SDS011;22957;50.824;4.360;2022-12-18T05:11:11;15.97;;;8.63;;
2390;SDS011;22957;50.824;4.360;2022-12-18T05:13:42;18.47;;;9.00;;
2390;SDS011;22957;50.824;4.360;2022-12-18T05:16:09;14.83;;;8.97;;
2390;SDS011;22957;50.824;4.360;2022-12-18T05:18:35;16.93;;;8.87;;
2390;SDS011;22957;50.824;4.360;2022-12-18T05:21:01;15.73;;;8.23;;
2390;SDS011;22957;50.824;4.360;2022-12-18T05:23:27;13.93;;;8.00;;
2390;SDS011;22957;50.824;4.360;2022-12-18T05:25:57;14.13;;;6.77;;
2390;SDS011;22957;50.824;4.360;2022-12-18T05:28:27;15.80;;;8.50;;
2390;SDS011;22957;50.824;4.360;2022-12-18T05:30:55;15.70;;;7.97;;
2390;SDS011;22957;50.824;4.360;2022-12-18T05:33:24;13.97;;;6.90;;
2390;SDS011;22957;50.824;4.360;2022-12-18T05:35:56;13.27;;;7.27;;
2390;SDS011;22957;50.824;4.360;2022-12-18T05:38:24;13.43;;;7.37;;
2390;SDS011;22957;50.824;4.360;2022-12-18T05:40:51;14.07;;;7.40;;
2390;SDS011;22957;50.824;4.360;2022-12-18T05:43:18;13.30;;;7.90;;
2390;SDS011;22957;50.824;4.360;2022-12-18T05:45:44;13.20;;;7.77;;
2390;SDS011;22957;50.824;4.360;2022-12-18T05:48:10;15.13;;;7.83;;
2390;SDS011;22957;50.824;4.360;2022-12-18T05:50:37;13.73;;;7.87;;
2390;SDS011;22957;50.824;4.360;2022-12-18T05:53:04;14.97;;;8.50;;
2390;SDS011;22957;50.824;4.360;2022-12-18T05:55:37;15.77;;;8.07;;
2390;SDS011;22957;50.824;4.360;2022-12-18T05:58:04;13.60;;;7.00;;
2390;SDS011;22957;50.824;4.360;2022-12-18T06:00:32;13.10;;;6.13;;
2390;SDS011;22957;50.824;4.360;2022-12-18T06:03:00;13.50;;;7.27;;
2390;SDS011;22957;50.824;4.360;2022-12-18T06:05:26;10.30;;;6.13;;
2390;SDS011;22957;50.824;4.360;2022-12-18T06:07:52;12.73;;;6.90;;
2390;SDS011;22957;50.824;4.360;2022-12-18T06:10:18;11.10;;;6.23;;
2390;SDS011;22957;50.824;4.360;2022-12-18T06:12:44;11.20;;;6.40;;
2390;SDS011;22957;50.824;4.360;2022-12-18T06:15:10;9.27;;;6.57;;
2390;SDS011;22957;50.824;4.360;2022-12-18T06:17:36;8.50;;;5.20;;
2390;SDS011;22957;50.824;4.360;2022-12-18T06:20:03;13.90;;;6.60;;
2390;SDS011;22957;50.824;4.360;2022-12-18T06:22:31;13.23;;;6.70;;
2390;SDS011;22957;50.824;4.360;2022-12-18T06:24:57;13.83;;;5.83;;
2390;SDS011;22957;50.824;4.360;2022-12-18T06:27:24;12.93;;;6.50;;
2390;SDS011;22957;50.824;4.360;2022-12-18T06:29:50;14.37;;;6.87;;
2390;SDS011;22957;50.824;4.360;2022-12-18T06:32:16;11.37;;;6.27;;
2390;SDS011;22957;50.824;4.360;2022-12-18T06:34:42;11.83;;;6.60;;
2390;SDS011;22957;50.824;4.360;2022-12-18T06:37:07;10.60;;;6.20;;
2390;SDS011;22957;50.824;4.360;2022-12-18T06:39:33;8.90;;;6.20;;
2390;SDS011;22957;50.824;4.360;2022-12-18T06:41:59;9.40;;;5.80;;
2390;SDS011;22957;50.824;4.360;2022-12-18T06:44:25;10.70;;;6.57;;
2390;SDS011;22957;50.824;4.360;2022-12-18T06:46:51;8.60;;;5.33;;
2390;SDS011;22957;50.824;4.360;2022-12-18T06:49:16;11.37;;;5.97;;
2390;SDS011;22957;50.824;4.360;2022-12-18T06:51:42;12.27;;;6.40;;
2390;SDS011;22957;50.824;4.360;2022-12-18T06:54:11;12.63;;;6.97;;
2390;SDS011;22957;50.824;4.360;2022-12-18T06:56:44;13.57;;;7.50;;
2390;SDS011;22957;50.824;4.360;2022-12-18T06:59:11;10.83;;;5.83;;
2390;SDS011;22957;50.824;4.360;2022-12-18T07:01:38;13.93;;;7.20;;
2390;SDS011;22957;50.824;4.360;2022-12-18T07:04:04;10.50;;;6.03;;
2390;SDS011;22957;50.824;4.360;2022-12-18T07:06:30;13.87;;;6.70;;
2390;SDS011;22957;50.824;4.360;2022-12-18T07:08:56;10.67;;;5.40;;
2390;SDS011;22957;50.824;4.360;2022-12-18T07:11:22;10.77;;;6.77;;
2390;SDS011;22957;50.824;4.360;2022-12-18T07:13:48;14.03;;;7.23;;
2390;SDS011;22957;50.824;4.360;2022-12-18T07:16:15;11.80;;;6.30;;
2390;SDS011;22957;50.824;4.360;2022-12-18T07:18:43;13.07;;;6.10;;
2390;SDS011;22957;50.824;4.360;2022-12-18T07:21:13;11.03;;;5.87;;
2390;SDS011;22957;50.824;4.360;2022-12-18T07:23:41;11.40;;;6.07;;
2390;SDS011;22957;50.824;4.360;2022-12-18T07:26:07;11.80;;;7.00;;
2390;SDS011;22957;50.824;4.360;2022-12-18T07:28:38;11.03;;;6.37;;
2390;SDS011;22957;50.824;4.360;2022-12-18T07:31:05;10.07;;;5.73;;
2390;SDS011;22957;50.824;4.360;2022-12-18T07:33:35;10.20;;;6.47;;
2390;SDS011;22957;50.824;4.360;2022-12-18T07:36:01;11.73;;;6.80;;
2390;SDS011;22957;50.824;4.360;2022-12-18T07:38:29;14.90;;;7.03;;
2390;SDS011;22957;50.824;4.360;2022-12-18T07:41:00;14.10;;;6.43;;
2390;SDS011;22957;50.824;4.360;2022-12-18T07:43:30;16.20;;;6.20;;
2390;SDS011;22957;50.824;4.360;2022-12-18T07:45:56;11.60;;;6.10;;
2390;SDS011;22957;50.824;4.360;2022-12-18T07:48:22;11.33;;;6.80;;
2390;SDS011;22957;50.824;4.360;2022-12-18T07:50:48;10.30;;;6.03;;
2390;SDS011;22957;50.824;4.360;2022-12-18T07:53:14;9.37;;;6.10;;
2390;SDS011;22957;50.824;4.360;2022-12-18T07:55:40;9.43;;;5.87;;
2390;SDS011;22957;50.824;4.360;2022-12-18T07:58:07;10.33;;;5.90;;
2390;SDS011;22957;50.824;4.360;2022-12-18T08:00:33;8.50;;;5.87;;
2390;SDS011;22957;50.824;4.360;2022-12-18T08:03:00;8.93;;;5.80;;
2390;SDS011;22957;50.824;4.360;2022-12-18T08:05:27;9.30;;;5.30;;
2390;SDS011;22957;50.824;4.360;2022-12-18T08:07:53;10.77;;;6.20;;
2390;SDS011;22957;50.824;4.360;2022-12-18T08:10:21;13.13;;;6.33;;
2390;SDS011;22957;50.824;4.360;2022-12-18T08:12:49;13.37;;;6.90;;
2390;SDS011;22957;50.824;4.360;2022-12-18T08:15:15;11.37;;;5.67;;
2390;SDS011;22957;50.824;4.360;2022-12-18T08:17:42;9.27;;;5.17;;
2390;SDS011;22957;50.824;4.360;2022-12-18T08:20:08;11.27;;;6.10;;
2390;SDS011;22957;50.824;4.360;2022-12-18T08:22:35;10.90;;;6.10;;
2390;SDS011;22957;50.824;4.360;2022-12-18T08:25:02;10.57;;;5.90;;
2390;SDS011;22957;50.824;4.360;2022-12-18T08:27:28;8.97;;;6.07;;
2390;SDS011;22957;50.824;4.360;2022-12-18T08:30:06;10.53;;;6.00;;
2390;SDS011;22957;50.824;4.360;2022-12-18T08:32:34;12.47;;;6.83;;
2390;SDS011;22957;50.824;4.360;2022-12-18T08:35:00;8.50;;;5.97;;
2390;SDS011;22957;50.824;4.360;2022-12-18T08:37:26;6.40;;;3.97;;
2390;SDS011;22957;50.824;4.360;2022-12-18T08:39:51;9.70;;;4.87;;
2390;SDS011;22957;50.824;4.360;2022-12-18T08:42:17;10.00;;;4.93;;
2390;SDS011;22957;50.824;4.360;2022-12-18T08:45:02;11.10;;;4.67;;
2390;SDS011;22957;50.824;4.360;2022-12-18T08:47:28;11.53;;;5.37;;
2390;SDS011;22957;50.824;4.360;2022-12-18T08:49:54;10.90;;;5.40;;
2390;SDS011;22957;50.824;4.360;2022-12-18T08:52:20;7.37;;;4.27;;
2390;SDS011;22957;50.824;4.360;2022-12-18T08:54:46;8.70;;;4.47;;
2390;SDS011;22957;50.824;4.360;2022-12-18T08:57:12;11.80;;;6.03;;
2390;SDS011;22957;50.824;4.360;2022-12-18T08:59:37;12.43;;;5.77;;
2390;SDS011;22957;50.824;4.360;2022-12-18T09:02:03;11.53;;;5.43;;
2390;SDS011;22957;50.824;4.360;2022-12-18T09:04:29;9.40;;;6.20;;
2390;SDS011;22957;50.824;4.360;2022-12-18T09:06:55;9.80;;;5.00;;
2390;SDS011;22957;50.824;4.360;2022-12-18T09:09:24;15.40;;;7.03;;
2390;SDS011;22957;50.824;4.360;2022-12-18T09:11:50;9.27;;;5.53;;
2390;SDS011;22957;50.824;4.360;2022-12-18T09:14:17;10.50;;;5.20;;
2390;SDS011;22957;50.824;4.360;2022-12-18T09:17:03;11.47;;;6.87;;
2390;SDS011;22957;50.824;4.360;2022-12-18T09:19:30;13.60;;;6.13;;
2390;SDS011;22957;50.824;4.360;2022-12-18T09:21:56;12.70;;;5.70;;
2390;SDS011;22957;50.824;4.360;2022-12-18T09:24:22;12.70;;;5.60;;
2390;SDS011;22957;50.824;4.360;2022-12-18T09:26:52;13.20;;;6.77;;
2390;SDS011;22957;50.824;4.360;2022-12-18T09:29:19;10.90;;;5.93;;
2390;SDS011;22957;50.824;4.360;2022-12-18T09:31:46;19.20;;;7.40;;
2390;SDS011;22957;50.824;4.360;2022-12-18T09:34:12;11.53;;;6.70;;
2390;SDS011;22957;50.824;4.360;2022-12-18T09:36:39;12.03;;;6.93;;
2390;SDS011;22957;50.824;4.360;2022-12-18T09:39:05;14.80;;;7.03;;
2390;SDS011;22957;50.824;4.360;2022-12-18T09:46:40;17.90;;;6.23;;
2390;SDS011;22957;50.824;4.360;2022-12-18T09:49:12;13.43;;;6.50;;
2390;SDS011;22957;50.824;4.360;2022-12-18T09:51:49;14.07;;;7.27;;
2390;SDS011;22957;50.824;4.360;2022-12-18T09:54:26;18.20;;;7.30;;
2390;SDS011;22957;50.824;4.360;2022-12-18T09:57:01;16.00;;;8.53;;
2390;SDS011;22957;50.824;4.360;2022-12-18T09:59:30;13.40;;;7.00;;
2390;SDS011;22957;50.824;4.360;2022-12-18T10:02:16;13.90;;;8.00;;
2390;SDS011;22957;50.824;4.360;2022-12-18T10:07:35;11.43;;;7.33;;
2390;SDS011;22957;50.824;4.360;2022-12-18T10:10:39;14.53;;;7.50;;
2390;SDS011;22957;50.824;4.360;2022-12-18T10:16:16;12.93;;;6.80;;
2390;SDS011;22957;50.824;4.360;2022-12-18T10:22:19;16.60;;;6.80;;
2390;SDS011;22957;50.824;4.360;2022-12-18T10:27:41;13.80;;;7.40;;
2390;SDS011;22957;50.824;4.360;2022-12-18T10:30:12;12.90;;;6.20;;
2390;SDS011;22957;50.824;4.360;2022-12-18T10:32:40;14.30;;;8.27;;
2390;SDS011;22957;50.824;4.360;2022-12-18T10:35:07;16.83;;;8.10;;
2390;SDS011;22957;50.824;4.360;2022-12-18T10:40:48;16.27;;;8.10;;
2390;SDS011;22957;50.824;4.360;2022-12-18T10:43:20;16.43;;;8.60;;
2390;SDS011;22957;50.824;4.360;2022-12-18T10:48:50;18.60;;;8.60;;
2390;SDS011;22957;50.824;4.360;2022-12-18T10:51:21;18.17;;;9.07;;
2390;SDS011;22957;50.824;4.360;2022-12-18T10:54:19;14.73;;;7.60;;
2390;SDS011;22957;50.824;4.360;2022-12-18T10:56:48;15.07;;;7.77;;
2390;SDS011;22957;50.824;4.360;2022-12-18T10:59:17;18.27;;;9.77;;
2390;SDS011;22957;50.824;4.360;2022-12-18T11:05:33;14.50;;;9.07;;
2390;SDS011;22957;50.824;4.360;2022-12-18T11:08:04;13.43;;;7.73;;
2390;SDS011;22957;50.824;4.360;2022-12-18T11:10:37;16.97;;;8.53;;
2390;SDS011;22957;50.824;4.360;2022-12-18T11:13:15;17.63;;;9.47;;
2390;SDS011;22957;50.824;4.360;2022-12-18T11:16:20;14.90;;;8.07;;
2390;SDS011;22957;50.824;4.360;2022-12-18T11:18:46;20.20;;;9.90;;
2390;SDS011;22957;50.824;4.360;2022-12-18T11:21:16;19.20;;;9.40;;
2390;SDS011;22957;50.824;4.360;2022-12-18T11:24:00;14.40;;;8.30;;
2390;SDS011;22957;50.824;4.360;2022-12-18T11:26:35;18.80;;;9.63;;
2390;SDS011;22957;50.824;4.360;2022-12-18T11:29:10;21.33;;;8.83;;
2390;SDS011;22957;50.824;4.360;2022-12-18T11:31:42;18.13;;;9.03;;
2390;SDS011;22957;50.824;4.360;2022-12-18T11:34:28;18.60;;;9.30;;
2390;SDS011;22957;50.824;4.360;2022-12-18T11:37:09;14.20;;;8.33;;
2390;SDS011;22957;50.824;4.360;2022-12-18T11:39:41;24.23;;;10.13;;
2390;SDS011;22957;50.824;4.360;2022-12-18T11:45:19;15.33;;;9.50;;
2390;SDS011;22957;50.824;4.360;2022-12-18T11:48:27;17.33;;;10.27;;
2390;SDS011;22957;50.824;4.360;2022-12-18T11:51:04;15.57;;;8.83;;
2390;SDS011;22957;50.824;4.360;2022-12-18T11:53:54;19.10;;;9.97;;
2390;SDS011;22957;50.824;4.360;2022-12-18T11:58:59;16.67;;;9.60;;
2390;SDS011;22957;50.824;4.360;2022-12-18T12:19:02;18.73;;;9.80;;
2390;SDS011;22957;50.824;4.360;2022-12-18T12:21:41;16.10;;;9.53;;
2390;SDS011;22957;50.824;4.360;2022-12-18T12:35:09;15.93;;;8.87;;
2390;SDS011;22957;50.824;4.360;2022-12-18T12:38:06;23.87;;;12.33;;
2390;SDS011;22957;50.824;4.360;2022-12-18T12:44:01;20.97;;;10.90;;
2390;SDS011;22957;50.824;4.360;2022-12-18T12:46:37;19.83;;;10.77;;
2390;SDS011;22957;50.824;4.360;2022-12-18T12:49:25;20.70;;;10.30;;
2390;SDS011;22957;50.824;4.360;2022-12-18T12:51:58;21.57;;;12.17;;
2390;SDS011;22957;50.824;4.360;2022-12-18T12:54:31;22.77;;;12.43;;
2390;SDS011;22957;50.824;4.360;2022-12-18T12:57:06;23.03;;;10.80;;
2390;SDS011;22957;50.824;4.360;2022-12-18T13:00:00;25.43;;;12.60;;
2390;SDS011;22957;50.824;4.360;2022-12-18T13:05:30;19.20;;;11.13;;
2390;SDS011;22957;50.824;4.360;2022-12-18T13:08:06;19.50;;;10.63;;
2390;SDS011;22957;50.824;4.360;2022-12-18T13:13:09;21.90;;;11.90;;
2390;SDS011;22957;50.824;4.360;2022-12-18T13:16:18;27.13;;;12.10;;
2390;SDS011;22957;50.824;4.360;2022-12-18T13:18:49;24.67;;;13.27;;
2390;SDS011;22957;50.824;4.360;2022-12-18T13:21:31;21.20;;;11.40;;
2390;SDS011;22957;50.824;4.360;2022-12-18T13:26:58;30.27;;;13.77;;
2390;SDS011;22957;50.824;4.360;2022-12-18T13:32:21;22.77;;;12.57;;
2390;SDS011;22957;50.824;4.360;2022-12-18T13:34:49;24.20;;;12.57;;
2390;SDS011;22957;50.824;4.360;2022-12-18T13:37:39;25.30;;;11.87;;
2390;SDS011;22957;50.824;4.360;2022-12-18T13:40:35;28.83;;;14.90;;
2390;SDS011;22957;50.824;4.360;2022-12-18T13:45:45;30.80;;;14.70;;
2390;SDS011;22957;50.824;4.360;2022-12-18T13:48:24;25.87;;;12.00;;
2390;SDS011;22957;50.824;4.360;2022-12-18T13:51:12;27.67;;;13.60;;
2390;SDS011;22957;50.824;4.360;2022-12-18T13:53:56;29.30;;;13.20;;
2390;SDS011;22957;50.824;4.360;2022-12-18T13:56:50;29.63;;;15.93;;
2390;SDS011;22957;50.824;4.360;2022-12-18T13:59:58;30.57;;;14.97;;
2390;SDS011;22957;50.824;4.360;2022-12-18T14:02:44;30.10;;;13.67;;
2390;SDS011;22957;50.824;4.360;2022-12-18T14:05:22;25.93;;;14.03;;
2390;SDS011;22957;50.824;4.360;2022-12-18T14:07:53;33.27;;;14.37;;
2390;SDS011;22957;50.824;4.360;2022-12-18T14:10:31;27.27;;;13.10;;
2390;SDS011;22957;50.824;4.360;2022-12-18T14:13:05;31.20;;;15.97;;
2390;SDS011;22957;50.824;4.360;2022-12-18T14:15:40;32.83;;;17.20;;
2390;SDS011;22957;50.824;4.360;2022-12-18T14:21:18;28.70;;;14.70;;
2390;SDS011;22957;50.824;4.360;2022-12-18T14:24:16;29.33;;;15.20;;
2390;SDS011;22957;50.824;4.360;2022-12-18T14:27:23;25.77;;;13.50;;
2390;SDS011;22957;50.824;4.360;2022-12-18T14:29:52;28.33;;;13.70;;
2390;SDS011;22957;50.824;4.360;2022-12-18T14:32:19;29.60;;;15.83;;
2390;SDS011;22957;50.824;4.360;2022-12-18T14:34:56;30.47;;;16.63;;
2390;SDS011;22957;50.824;4.360;2022-12-18T14:37:28;29.63;;;14.50;;
2390;SDS011;22957;50.824;4.360;2022-12-18T14:40:04;34.43;;;16.93;;
2390;SDS011;22957;50.824;4.360;2022-12-18T14:42:40;32.13;;;15.80;;
2390;SDS011;22957;50.824;4.360;2022-12-18T14:48:00;32.90;;;16.20;;
2390;SDS011;22957;50.824;4.360;2022-12-18T14:50:34;28.63;;;13.73;;
2390;SDS011;22957;50.824;4.360;2022-12-18T14:53:18;31.00;;;16.90;;
2390;SDS011;22957;50.824;4.360;2022-12-18T14:55:48;33.17;;;16.33;;
2390;SDS011;22957;50.824;4.360;2022-12-18T14:58:26;36.10;;;16.63;;
2390;SDS011;22957;50.824;4.360;2022-12-18T15:00:54;35.57;;;15.97;;
2390;SDS011;22957;50.824;4.360;2022-12-18T15:03:25;28.60;;;15.27;;
2390;SDS011;22957;50.824;4.360;2022-12-18T15:05:52;35.20;;;16.00;;
2390;SDS011;22957;50.824;4.360;2022-12-18T15:08:34;29.87;;;15.43;;
2390;SDS011;22957;50.824;4.360;2022-12-18T15:11:22;35.33;;;15.40;;
2390;SDS011;22957;50.824;4.360;2022-12-18T15:13:51;42.43;;;18.17;;
2390;SDS011;22957;50.824;4.360;2022-12-18T15:16:21;29.63;;;14.77;;
2390;SDS011;22957;50.824;4.360;2022-12-18T15:18:47;34.23;;;15.50;;
2390;SDS011;22957;50.824;4.360;2022-12-18T15:21:17;29.50;;;14.53;;
2390;SDS011;22957;50.824;4.360;2022-12-18T15:23:52;32.67;;;16.30;;
2390;SDS011;22957;50.824;4.360;2022-12-18T15:26:21;32.37;;;15.10;;
2390;SDS011;22957;50.824;4.360;2022-12-18T15:28:49;31.03;;;16.37;;
2390;SDS011;22957;50.824;4.360;2022-12-18T15:36:45;38.77;;;17.93;;
2390;SDS011;22957;50.824;4.360;2022-12-18T15:39:14;34.30;;;15.60;;
2390;SDS011;22957;50.824;4.360;2022-12-18T15:41:40;36.30;;;16.90;;
2390;SDS011;22957;50.824;4.360;2022-12-18T15:44:27;29.13;;;14.67;;
2390;SDS011;22957;50.824;4.360;2022-12-18T15:46:53;40.87;;;16.47;;
2390;SDS011;22957;50.824;4.360;2022-12-18T15:49:23;39.40;;;16.83;;
2390;SDS011;22957;50.824;4.360;2022-12-18T15:51:54;36.17;;;16.17;;
2390;SDS011;22957;50.824;4.360;2022-12-18T15:54:26;32.73;;;16.30;;
2390;SDS011;22957;50.824;4.360;2022-12-18T15:57:11;31.97;;;14.90;;
2390;SDS011;22957;50.824;4.360;2022-12-18T15:59:51;37.10;;;18.13;;
2390;SDS011;22957;50.824;4.360;2022-12-18T16:02:37;32.23;;;15.50;;
2390;SDS011;22957;50.824;4.360;2022-12-18T16:05:13;31.07;;;14.80;;
2390;SDS011;22957;50.824;4.360;2022-12-18T16:07:42;33.93;;;14.57;;
2390;SDS011;22957;50.824;4.360;2022-12-18T16:10:16;35.37;;;15.60;;
2390;SDS011;22957;50.824;4.360;2022-12-18T16:12:42;30.10;;;15.47;;
2390;SDS011;22957;50.824;4.360;2022-12-18T16:15:11;30.97;;;14.50;;
2390;SDS011;22957;50.824;4.360;2022-12-18T16:17:42;33.17;;;15.57;;
2390;SDS011;22957;50.824;4.360;2022-12-18T16:20:12;27.73;;;14.43;;
2390;SDS011;22957;50.824;4.360;2022-12-18T16:22:41;31.53;;;14.83;;
2390;SDS011;22957;50.824;4.360;2022-12-18T16:25:19;33.27;;;15.07;;
2390;SDS011;22957;50.824;4.360;2022-12-18T16:27:59;31.10;;;15.43;;
2390;SDS011;22957;50.824;4.360;2022-12-18T16:30:29;32.57;;;14.10;;
2390;SDS011;22957;50.824;4.360;2022-12-18T16:32:57;26.50;;;13.67;;
2390;SDS011;22957;50.824;4.360;2022-12-18T16:35:24;31.60;;;15.13;;
2390;SDS011;22957;50.824;4.360;2022-12-18T16:37:51;28.73;;;12.87;;
2390;SDS011;22957;50.824;4.360;2022-12-18T16:40:17;40.60;;;16.07;;
2390;SDS011;22957;50.824;4.360;2022-12-18T16:42:44;32.17;;;16.00;;
2390;SDS011;22957;50.824;4.360;2022-12-18T16:45:16;35.43;;;16.10;;
2390;SDS011;22957;50.824;4.360;2022-12-18T16:47:44;27.90;;;13.10;;
2390;SDS011;22957;50.824;4.360;2022-12-18T16:50:11;32.30;;;14.87;;
2390;SDS011;22957;50.824;4.360;2022-12-18T16:52:37;33.10;;;15.80;;
2390;SDS011;22957;50.824;4.360;2022-12-18T16:55:04;29.10;;;14.60;;
2390;SDS011;22957;50.824;4.360;2022-12-18T16:57:33;31.70;;;15.77;;
2390;SDS011;22957;50.824;4.360;2022-12-18T16:59:59;28.40;;;14.50;;
2390;SDS011;22957;50.824;4.360;2022-12-18T17:02:25;27.10;;;12.40;;